createdAt,value
2023-03-02T00:02:49.404Z,11.00
2023-03-02T00:05:52.118Z,11.07
2023-03-02T00:08:54.057Z,9.85
2023-03-02T00:11:57.778Z,10.38
2023-03-02T00:14:59.153Z,10.57
2023-03-02T00:18:01.853Z,9.53
2023-03-02T00:21:03.458Z,9.73
2023-03-02T00:24:06.975Z,10.23
2023-03-02T00:27:08.939Z,9.80
2023-03-02T00:30:13.216Z,9.82
2023-03-02T00:33:16.240Z,10.87
2023-03-02T00:36:19.780Z,10.03
2023-03-02T00:39:22.341Z,10.40
2023-03-02T00:42:24.406Z,11.10
2023-03-02T00:45:27.057Z,10.68
2023-03-02T00:48:28.352Z,11.40
2023-03-02T00:51:30.903Z,9.77
2023-03-02T00:54:32.381Z,10.13
2023-03-02T00:57:35.610Z,11.13
2023-03-02T01:00:38.442Z,10.23
2023-03-02T01:03:39.821Z,10.30
2023-03-02T01:06:47.913Z,10.40
2023-03-02T01:09:49.186Z,8.80
2023-03-02T01:12:52.441Z,9.27
2023-03-02T01:16:01.684Z,9.77
2023-03-02T01:19:03.062Z,9.33
2023-03-02T01:25:26.995Z,8.80
2023-03-02T01:28:28.970Z,8.70
2023-03-02T01:31:32.380Z,8.52
2023-03-02T01:34:33.767Z,8.00
2023-03-02T01:37:36.280Z,8.20
2023-03-02T01:45:01.169Z,8.07
2023-03-02T01:48:02.708Z,8.13
2023-03-02T01:51:06.442Z,9.60
2023-03-02T01:54:22.261Z,8.00
2023-03-02T01:57:29.311Z,7.75
2023-03-02T02:00:36.401Z,7.93
2023-03-02T02:03:38.619Z,8.32
2023-03-02T02:06:44.305Z,8.53
2023-03-02T02:09:49.138Z,8.00
2023-03-02T02:12:50.791Z,7.50
2023-03-02T02:15:52.735Z,7.57
2023-03-02T02:18:55.512Z,7.82
2023-03-02T02:21:56.936Z,8.33
2023-03-02T02:25:03.139Z,7.53
2023-03-02T02:28:10.533Z,7.45
2023-03-02T02:31:16.116Z,8.07
2023-03-02T02:34:23.456Z,7.85
2023-03-02T02:37:29.555Z,7.57
2023-03-02T02:40:44.299Z,7.90
2023-03-02T02:43:46.565Z,7.22
2023-03-02T02:46:47.908Z,7.75
2023-03-02T02:49:52.709Z,8.20
2023-03-02T02:52:59.307Z,8.13
2023-03-02T02:56:01.669Z,7.63
2023-03-02T02:59:11.076Z,8.15
2023-03-02T03:02:18.261Z,8.50
2023-03-02T03:05:19.604Z,7.00
2023-03-02T03:08:51.641Z,7.40
2023-03-02T03:11:56.050Z,7.40
2023-03-02T03:14:59.672Z,8.35
2023-03-02T03:18:01.144Z,7.78
2023-03-02T03:21:02.604Z,8.27
2023-03-02T03:24:04.690Z,8.33
2023-03-02T03:27:07.406Z,8.53
2023-03-02T03:30:11.162Z,7.65
2023-03-02T03:33:13.752Z,8.18
2023-03-02T03:36:15.355Z,6.80
2023-03-02T03:39:17.807Z,7.30
2023-03-02T03:42:19.310Z,7.70
2023-03-02T03:45:21.436Z,7.40
2023-03-02T03:48:22.978Z,7.82
2023-03-02T03:51:24.875Z,7.82
2023-03-02T03:54:26.323Z,7.53
2023-03-02T03:57:28.449Z,7.70
2023-03-02T04:00:30.732Z,7.32
2023-03-02T04:03:32.052Z,8.43
2023-03-02T04:06:34.083Z,8.32
2023-03-02T04:09:37.304Z,7.83
2023-03-02T04:12:40.318Z,8.00
2023-03-02T04:15:44.400Z,8.15
2023-03-02T04:18:47.219Z,8.48
2023-03-02T04:21:51.318Z,8.00
2023-03-02T04:24:52.899Z,7.43
2023-03-02T04:27:54.996Z,7.40
2023-03-02T04:30:57.019Z,7.50
2023-03-02T04:33:59.101Z,7.80
2023-03-02T04:37:00.622Z,8.35
2023-03-02T04:40:02.354Z,8.20
2023-03-02T04:43:03.832Z,7.50
2023-03-02T04:46:06.340Z,8.30
2023-03-02T04:49:08.005Z,7.93
2023-03-02T04:52:09.759Z,8.38
2023-03-02T04:55:17.978Z,8.20
2023-03-02T04:58:19.314Z,7.67
2023-03-02T05:01:21.731Z,8.52
2023-03-02T05:04:23.182Z,8.43
2023-03-02T05:07:24.497Z,8.05
2023-03-02T05:10:27.462Z,8.23
2023-03-02T05:13:28.942Z,7.87
2023-03-02T05:16:33.267Z,8.88
2023-03-02T05:19:34.903Z,9.35
2023-03-02T05:22:37.503Z,8.73
2023-03-02T05:25:39.133Z,7.53
2023-03-02T05:28:40.980Z,9.30
2023-03-02T05:31:44.680Z,8.57
2023-03-02T05:34:46.086Z,9.55
2023-03-02T05:37:47.731Z,9.00
2023-03-02T05:40:49.821Z,8.93
2023-03-02T05:43:51.370Z,8.67
2023-03-02T05:46:53.565Z,8.68
2023-03-02T05:49:55.316Z,8.40
2023-03-02T05:52:57.631Z,8.48
2023-03-02T05:55:58.937Z,9.57
2023-03-02T05:59:00.270Z,9.47
2023-03-02T06:02:03.724Z,9.15
2023-03-02T06:05:06.181Z,9.75
2023-03-02T06:08:07.800Z,9.80
2023-03-02T06:11:09.746Z,9.03
2023-03-02T06:14:11.072Z,9.03
2023-03-02T06:17:13.026Z,8.93
2023-03-02T06:20:15.352Z,8.82
2023-03-02T06:23:16.663Z,8.73
2023-03-02T06:26:17.980Z,9.20
2023-03-02T06:29:19.365Z,9.87
2023-03-02T06:32:21.684Z,9.35
2023-03-02T06:35:23.596Z,9.30
2023-03-02T06:38:25.181Z,9.38
2023-03-02T06:41:26.472Z,8.90
2023-03-02T06:44:27.849Z,8.73
2023-03-02T06:47:30.435Z,9.88
2023-03-02T06:50:32.486Z,8.93
2023-03-02T06:53:33.787Z,9.43
2023-03-02T06:56:35.517Z,9.90
2023-03-02T06:59:37.095Z,10.30
2023-03-02T07:02:39.079Z,10.00
2023-03-02T07:05:40.378Z,9.65
2023-03-02T07:08:41.999Z,9.88
2023-03-02T07:11:43.400Z,8.97
2023-03-02T07:14:44.707Z,10.03
2023-03-02T07:17:47.041Z,9.32
2023-03-02T07:20:48.337Z,9.93
2023-03-02T07:23:49.628Z,10.75
2023-03-02T07:26:50.947Z,10.87
2023-03-02T07:29:52.245Z,10.10
2023-03-02T07:32:54.197Z,10.32
2023-03-02T07:35:55.563Z,10.88
2023-03-02T07:38:57.145Z,9.80
2023-03-02T07:41:59.011Z,10.93
2023-03-02T07:45:00.457Z,11.90
2023-03-02T07:48:04.300Z,10.38
2023-03-02T07:51:06.518Z,10.45
2023-03-02T07:54:07.929Z,9.93
2023-03-02T07:57:09.354Z,9.13
2023-03-02T08:00:11.831Z,10.10
2023-03-02T08:03:13.866Z,10.18
2023-03-02T08:06:15.319Z,9.13
2023-03-02T08:09:17.157Z,10.07
2023-03-02T08:12:18.585Z,9.63
2023-03-02T08:15:19.907Z,11.03
2023-03-02T08:18:22.040Z,11.55
2023-03-02T08:21:25.621Z,10.50
2023-03-02T08:24:27.032Z,10.32
2023-03-02T08:27:28.675Z,9.70
2023-03-02T08:30:30.127Z,10.70
2023-03-02T08:33:32.732Z,10.75
2023-03-02T08:36:34.318Z,11.15
2023-03-02T08:39:36.045Z,10.70
2023-03-02T08:42:37.558Z,11.67
2023-03-02T08:45:38.861Z,10.27
2023-03-02T08:48:41.333Z,10.55
2023-03-02T08:51:42.968Z,10.48
2023-03-02T08:54:44.494Z,10.10
2023-03-02T08:57:46.131Z,11.17
2023-03-02T09:00:47.512Z,10.57
2023-03-02T09:03:50.077Z,10.93
2023-03-02T09:06:51.450Z,10.60
2023-03-02T09:09:52.916Z,10.63
2023-03-02T09:12:54.258Z,10.87
2023-03-02T09:15:55.737Z,9.13
2023-03-02T09:18:57.680Z,10.38
2023-03-02T09:21:58.979Z,10.18
2023-03-02T09:25:00.248Z,9.50
2023-03-02T09:28:01.712Z,10.27
2023-03-02T09:31:05.190Z,9.60
2023-03-02T09:34:07.197Z,10.35
2023-03-02T09:37:08.505Z,9.35
2023-03-02T09:40:17.155Z,9.20
2023-03-02T09:43:32.680Z,9.40
2023-03-02T09:46:43.603Z,9.90
2023-03-02T09:49:57.299Z,11.23
2023-03-02T09:53:18.111Z,11.30
2023-03-02T09:56:20.733Z,9.63
2023-03-02T09:59:26.098Z,9.83
2023-03-02T10:02:30.781Z,9.77
2023-03-02T10:05:40.123Z,9.95
2023-03-02T10:08:42.666Z,10.18
2023-03-02T10:12:04.006Z,10.73
2023-03-02T10:15:12.424Z,9.80
2023-03-02T10:18:20.426Z,10.80
2023-03-02T10:21:27.747Z,9.95
2023-03-02T10:24:35.400Z,10.77
2023-03-02T10:27:39.068Z,9.88
2023-03-02T10:30:41.212Z,9.07
2023-03-02T10:33:42.924Z,9.80
2023-03-02T10:36:47.049Z,9.82
2023-03-02T10:39:48.973Z,9.13
2023-03-02T10:42:50.488Z,9.63
2023-03-02T10:45:59.504Z,9.57
2023-03-02T10:49:00.873Z,10.03
2023-03-02T10:52:04.966Z,10.00
2023-03-02T10:55:13.531Z,10.57
2023-03-02T10:58:25.199Z,9.35
2023-03-02T11:01:26.770Z,10.37
2023-03-02T11:04:28.632Z,9.37
2023-03-02T11:07:30.680Z,9.60
2023-03-02T11:10:34.925Z,9.13
2023-03-02T11:13:38.117Z,9.07
2023-03-02T11:16:39.520Z,8.67
2023-03-02T11:19:41.823Z,9.73
2023-03-02T11:22:52.585Z,8.88
2023-03-02T11:25:57.287Z,9.70
2023-03-02T11:29:03.387Z,8.40
2023-03-02T11:32:12.931Z,8.80
2023-03-02T11:35:24.642Z,8.43
2023-03-02T11:38:30.119Z,7.95
2023-03-02T11:41:35.238Z,8.27
2023-03-02T11:44:36.850Z,8.48
2023-03-02T11:47:40.517Z,7.83
2023-03-02T11:50:50.924Z,7.97
2023-03-02T11:53:58.009Z,7.68
2023-03-02T11:56:59.577Z,7.35
2023-03-02T12:00:15.792Z,8.32
2023-03-02T12:03:22.994Z,7.47
2023-03-02T12:06:29.002Z,8.53
2023-03-02T12:09:34.841Z,7.90
2023-03-02T12:12:42.240Z,9.40
2023-03-02T12:15:46.009Z,8.23
2023-03-02T12:18:48.409Z,8.03
2023-03-02T12:21:58.322Z,8.50
2023-03-02T12:25:04.654Z,7.85
2023-03-02T12:28:24.535Z,7.53
2023-03-02T12:31:26.803Z,7.55
2023-03-02T12:34:34.936Z,7.40
2023-03-02T12:37:44.752Z,7.20
2023-03-02T12:41:01.732Z,7.88
2023-03-02T12:44:18.932Z,7.85
2023-03-02T12:47:26.436Z,7.65
2023-03-02T12:50:31.750Z,8.73
2023-03-02T12:53:33.225Z,7.37
2023-03-02T12:56:35.508Z,7.55
2023-03-02T12:59:37.059Z,7.43
2023-03-02T13:02:46.167Z,8.07
2023-03-02T13:05:47.633Z,7.53
2023-03-02T13:08:52.439Z,8.23
2023-03-02T13:11:54.633Z,8.57
2023-03-02T13:14:57.755Z,7.72
2023-03-02T13:17:59.774Z,7.38
2023-03-02T13:21:03.892Z,7.80
2023-03-02T13:24:25.969Z,8.73
2023-03-02T13:27:28.580Z,8.18
2023-03-02T13:30:31.731Z,7.80
2023-03-02T13:33:35.256Z,6.93
2023-03-02T13:36:38.399Z,8.70
2023-03-02T13:39:39.750Z,7.50
2023-03-02T13:42:41.852Z,6.78
2023-03-02T13:45:51.882Z,7.20
2023-03-02T13:49:04.011Z,6.85
2023-03-02T13:52:21.563Z,7.40
2023-03-02T13:55:23.692Z,7.40
2023-03-02T13:58:27.414Z,8.05
2023-03-02T14:01:29.406Z,7.75
2023-03-02T14:04:30.956Z,8.45
2023-03-02T14:07:32.286Z,8.27
2023-03-02T14:10:33.727Z,8.20
2023-03-02T14:13:40.031Z,8.15
2023-03-02T14:16:41.310Z,8.48
2023-03-02T14:19:42.823Z,8.63
2023-03-02T14:22:44.329Z,7.80
2023-03-02T14:25:46.109Z,8.63
2023-03-02T14:28:53.658Z,8.37
2023-03-02T14:32:04.078Z,8.07
2023-03-02T14:35:08.543Z,8.40
2023-03-02T14:38:11.074Z,8.88
2023-03-02T14:41:16.122Z,7.97
2023-03-02T14:44:18.267Z,8.40
2023-03-02T14:47:21.057Z,8.18
2023-03-02T14:50:22.933Z,7.75
2023-03-02T14:53:29.669Z,7.90
2023-03-02T14:56:31.494Z,8.20
2023-03-02T14:59:33.603Z,7.53
2023-03-02T15:02:35.195Z,7.88
2023-03-02T15:05:36.610Z,8.48
2023-03-02T15:08:38.135Z,8.45
2023-03-02T15:11:39.470Z,8.20
2023-03-02T15:14:41.586Z,8.03
2023-03-02T15:17:42.977Z,7.72
2023-03-02T15:20:44.426Z,7.70
2023-03-02T15:23:45.984Z,7.82
2023-03-02T15:26:47.423Z,7.80
2023-03-02T15:29:50.070Z,7.73
2023-03-02T15:32:52.479Z,7.35
2023-03-02T15:35:55.521Z,7.97
2023-03-02T15:38:57.130Z,7.10
2023-03-02T15:41:58.437Z,7.80
2023-03-02T15:45:00.733Z,7.40
2023-03-02T15:48:02.159Z,7.03
2023-03-02T15:51:06.315Z,6.63
2023-03-02T15:54:10.057Z,7.07
2023-03-02T15:57:11.844Z,7.07
2023-03-02T16:00:15.743Z,6.60
2023-03-02T16:03:18.488Z,6.70
2023-03-02T16:06:20.008Z,6.90
2023-03-02T16:09:21.436Z,6.40
2023-03-02T16:12:24.076Z,6.40
2023-03-02T16:15:25.998Z,6.23
2023-03-02T16:18:27.379Z,6.53
2023-03-02T16:21:29.793Z,5.63
2023-03-02T16:24:31.224Z,6.47
2023-03-02T16:27:32.528Z,5.67
2023-03-02T16:30:35.695Z,6.07
2023-03-02T16:33:37.412Z,5.75
2023-03-02T16:36:40.274Z,6.13
2023-03-02T16:39:41.877Z,6.10
2023-03-02T16:42:43.324Z,6.03
2023-03-02T16:45:45.574Z,6.18
2023-03-02T16:48:48.516Z,5.75
2023-03-02T16:51:49.940Z,6.07
2023-03-02T16:54:51.283Z,6.17
2023-03-02T16:57:53.079Z,5.78
2023-03-02T17:00:55.942Z,5.68
2023-03-02T17:03:57.346Z,5.50
2023-03-02T17:07:00.806Z,5.20
2023-03-02T17:10:02.612Z,4.90
2023-03-02T17:13:04.584Z,5.72
2023-03-02T17:16:07.324Z,5.32
2023-03-02T17:19:08.622Z,5.10
2023-03-02T17:22:10.070Z,5.20
2023-03-02T17:25:12.410Z,5.37
2023-03-02T17:28:14.254Z,5.07
2023-03-02T17:31:16.515Z,5.15
2023-03-02T17:34:17.976Z,5.88
2023-03-02T17:37:19.327Z,5.28
2023-03-02T17:40:20.772Z,5.23
2023-03-02T17:43:22.257Z,5.07
2023-03-02T17:46:25.866Z,5.75
2023-03-02T17:49:27.248Z,5.05
2023-03-02T17:52:29.166Z,5.65
2023-03-02T17:55:30.510Z,5.20
2023-03-02T17:58:44.318Z,5.32
2023-03-02T18:01:47.371Z,5.60
2023-03-02T18:04:48.901Z,5.95
2023-03-02T18:07:52.070Z,5.15
2023-03-02T18:10:53.412Z,6.00
2023-03-02T18:13:55.223Z,5.20
2023-03-02T18:16:57.564Z,5.80
2023-03-02T18:19:58.913Z,6.13
2023-03-02T18:23:00.905Z,5.28
2023-03-02T18:26:02.394Z,5.70
2023-03-02T18:29:03.958Z,5.30
2023-03-02T18:32:10.031Z,5.43
2023-03-02T18:35:11.773Z,5.53
2023-03-02T18:38:13.121Z,5.30
2023-03-02T18:41:14.498Z,6.07
2023-03-02T18:44:17.149Z,4.85
2023-03-02T18:47:19.230Z,4.95
2023-03-02T18:50:20.970Z,4.78
2023-03-02T18:53:22.296Z,5.63
2023-03-02T18:56:24.574Z,5.40
2023-03-02T18:59:25.988Z,5.28
2023-03-02T19:02:28.292Z,5.78
2023-03-02T19:05:29.797Z,5.72
2023-03-02T19:08:31.969Z,5.97
2023-03-02T19:11:33.314Z,5.17
2023-03-02T19:14:34.654Z,5.72
2023-03-02T19:17:37.917Z,6.28
2023-03-02T19:20:39.240Z,5.65
2023-03-02T19:23:41.119Z,5.97
2023-03-02T19:26:42.466Z,6.33
2023-03-02T19:29:43.766Z,6.28
2023-03-02T19:32:46.505Z,6.72
2023-03-02T19:35:47.881Z,6.72
2023-03-02T19:38:49.262Z,7.47
2023-03-02T19:41:50.773Z,6.87
2023-03-02T19:44:52.314Z,7.15
2023-03-02T19:47:57.478Z,6.43
2023-03-02T19:50:59.094Z,6.65
2023-03-02T19:54:00.655Z,6.23
2023-03-02T19:57:02.834Z,6.20
2023-03-02T20:00:04.435Z,6.57
2023-03-02T20:03:07.843Z,6.10
2023-03-02T20:06:09.323Z,7.40
2023-03-02T20:09:13.778Z,7.33
2023-03-02T20:12:15.059Z,6.97
2023-03-02T20:15:17.096Z,7.25
2023-03-02T20:18:19.996Z,7.07
2023-03-02T20:21:25.122Z,7.03
2023-03-02T20:24:26.433Z,6.63
2023-03-02T20:27:27.907Z,6.07
2023-03-02T20:30:32.572Z,5.97
2023-03-02T20:33:38.247Z,5.22
2023-03-02T20:36:39.586Z,5.97
2023-03-02T20:39:47.231Z,6.50
2023-03-02T20:42:48.646Z,5.87
2023-03-02T20:45:50.236Z,5.72
2023-03-02T20:48:52.645Z,5.72
2023-03-02T20:51:55.986Z,5.82
2023-03-02T20:54:57.498Z,5.57
2023-03-02T20:58:00.485Z,5.93
2023-03-02T21:01:01.893Z,5.78
2023-03-02T21:04:04.236Z,5.50
2023-03-02T21:07:05.555Z,5.43
2023-03-02T21:10:12.853Z,5.67
2023-03-02T21:13:14.441Z,5.73
2023-03-02T21:16:19.076Z,5.10
2023-03-02T21:19:21.313Z,6.15
2023-03-02T21:22:22.592Z,6.35
2023-03-02T21:25:23.929Z,6.67
2023-03-02T21:28:25.549Z,6.87
2023-03-02T21:31:26.924Z,7.68
2023-03-02T21:34:29.464Z,7.15
2023-03-02T21:37:30.769Z,6.65
2023-03-02T21:40:35.596Z,6.60
2023-03-02T21:43:37.158Z,6.70
2023-03-02T21:46:38.903Z,6.20
2023-03-02T21:49:41.106Z,6.63
2023-03-02T21:52:42.471Z,6.15
2023-03-02T21:55:45.023Z,6.83
2023-03-02T21:58:47.603Z,6.00
2023-03-02T22:01:49.094Z,6.85
2023-03-02T22:04:51.018Z,7.00
2023-03-02T22:07:52.457Z,7.43
2023-03-02T22:10:53.791Z,6.97
2023-03-02T22:13:58.129Z,6.90
2023-03-02T22:16:59.446Z,6.30
2023-03-02T22:20:01.446Z,7.03
2023-03-02T22:23:11.041Z,7.40
2023-03-02T22:26:15.616Z,6.23
2023-03-02T22:29:21.816Z,6.37
2023-03-02T22:32:26.335Z,5.50
2023-03-02T22:35:28.342Z,6.43
2023-03-02T22:38:31.055Z,6.97
2023-03-02T22:41:32.487Z,6.37
2023-03-02T22:44:34.316Z,6.47
2023-03-02T22:47:35.872Z,5.80
2023-03-02T22:50:40.777Z,6.15
2023-03-02T22:53:47.369Z,6.25
2023-03-02T22:56:50.499Z,6.77
2023-03-02T23:00:13.513Z,6.63
2023-03-02T23:03:17.640Z,5.97
2023-03-02T23:06:28.976Z,7.35
2023-03-02T23:09:33.431Z,6.43
2023-03-02T23:12:35.053Z,7.60
2023-03-02T23:15:36.748Z,7.03
2023-03-02T23:18:38.233Z,7.15
2023-03-02T23:21:44.401Z,6.55
2023-03-02T23:24:45.981Z,6.93
2023-03-02T23:27:47.463Z,6.07
2023-03-02T23:30:49.332Z,6.83
2023-03-02T23:33:50.688Z,7.15
2023-03-02T23:36:52.792Z,7.25
2023-03-02T23:39:54.428Z,7.22
2023-03-02T23:42:55.949Z,7.63
2023-03-02T23:45:57.427Z,7.27
2023-03-02T23:48:58.867Z,6.80
2023-03-02T23:52:01.079Z,6.53
2023-03-02T23:55:02.867Z,6.47
2023-03-02T23:58:04.329Z,8.40
